Time;durP1;ratioP1;P1;durP2;ratioP2;P2;SDS_P1;SDS_P2;PMS_P1;PMS_P2;Temp;Humidity;BMP_temperature;BMP_pressure;BME280_temperature;BME280_humidity;BME280_pressure;Samples;Min_cycle;Max_cycle;Signal;HPM_P1;HPM_P2
2022/11/10 00:00:18;;;;;;;2.75;1.58;;;22.40;58.40;;;;;;5036408;28;20103;-67
2022/11/10 00:02:44;;;;;;;2.78;1.70;;;22.40;58.40;;;;;;5034583;28;20037;-68
2022/11/10 00:05:10;;;;;;;2.28;1.65;;;22.30;58.40;;;;;;5035073;28;20080;-67
2022/11/10 00:07:37;;;;;;;2.50;1.50;;;22.40;58.40;;;;;;5035953;28;20043;-68
2022/11/10 00:10:03;;;;;;;2.75;1.55;;;22.30;58.40;;;;;;5021091;28;20057;-68
2022/11/10 00:12:30;;;;;;;3.00;1.70;;;22.30;58.40;;;;;;5039895;28;20503;-67
2022/11/10 00:17:40;;;;;;;2.55;1.58;;;22.30;58.40;;;;;;5037500;28;20036;-67
2022/11/10 00:20:06;;;;;;;2.80;1.60;;;22.30;58.40;;;;;;5038039;28;20469;-67
2022/11/10 00:22:35;;;;;;;2.80;1.70;;;22.30;58.40;;;;;;5034401;28;20030;-67
2022/11/10 00:25:00;;;;;;;2.22;1.50;;;22.30;58.50;;;;;;5036152;28;20052;-67
2022/11/10 00:27:26;;;;;;;2.20;1.40;;;22.30;58.40;;;;;;5036122;28;20069;-68
2022/11/10 00:29:52;;;;;;;3.40;1.77;;;22.20;58.40;;;;;;5021744;28;20801;-67
2022/11/10 00:32:17;;;;;;;2.47;1.50;;;22.20;58.50;;;;;;5016357;28;20042;-67
2022/11/10 00:34:43;;;;;;;4.18;1.70;;;22.30;58.50;;;;;;5031502;28;20029;-67
2022/11/10 00:37:09;;;;;;;2.60;1.60;;;22.20;58.40;;;;;;5035223;28;20034;-68
2022/11/10 00:39:35;;;;;;;3.00;1.70;;;22.20;58.40;;;;;;5038917;28;20121;-67
2022/11/10 00:42:01;;;;;;;2.90;1.70;;;22.20;58.40;;;;;;5036104;28;20051;-67
2022/11/10 00:44:27;;;;;;;2.72;1.52;;;22.20;58.40;;;;;;5033204;28;20379;-67
2022/11/10 00:46:52;;;;;;;2.55;1.60;;;22.20;58.50;;;;;;5034550;28;20033;-66
2022/11/10 00:49:18;;;;;;;2.47;1.50;;;22.20;58.50;;;;;;5033783;28;20413;-67
2022/11/10 00:51:44;;;;;;;2.40;1.50;;;22.20;58.50;;;;;;5022246;28;20155;-66
2022/11/10 00:54:09;;;;;;;2.53;1.50;;;22.20;58.50;;;;;;5039231;28;20384;-66
2022/11/10 00:56:35;;;;;;;2.78;1.63;;;22.20;58.50;;;;;;5038422;28;20029;-66
2022/11/10 00:59:00;;;;;;;2.50;1.60;;;22.20;58.60;;;;;;5034590;28;20108;-66
2022/11/10 01:01:26;;;;;;;2.72;1.55;;;22.20;58.50;;;;;;5016890;28;20116;-66
2022/11/10 01:03:52;;;;;;;2.33;1.40;;;22.20;58.60;;;;;;5034602;28;20036;-66
2022/11/10 01:06:19;;;;;;;3.35;1.60;;;22.20;58.50;;;;;;5037622;28;20080;-67
2022/11/10 01:08:45;;;;;;;2.45;1.40;;;22.20;58.60;;;;;;5032088;28;20033;-66
2022/11/10 01:11:21;;;;;;;2.55;1.40;;;22.20;58.60;;;;;;5035702;28;20029;-66
2022/11/10 01:13:50;;;;;;;2.75;1.70;;;22.10;58.50;;;;;;5034489;28;20479;-66
2022/11/10 01:16:21;;;;;;;3.13;1.77;;;22.20;58.60;;;;;;5037412;28;20446;-67
2022/11/10 01:18:55;;;;;;;2.22;1.40;;;22.10;58.60;;;;;;5036357;28;20017;-66
2022/11/10 01:21:21;;;;;;;2.10;1.50;;;22.10;58.60;;;;;;5032462;28;20065;-66
2022/11/10 01:23:47;;;;;;;2.40;1.50;;;22.10;58.60;;;;;;5028710;28;20480;-67
2022/11/10 01:26:13;;;;;;;2.88;1.50;;;22.10;58.60;;;;;;5040412;28;20064;-67
2022/11/10 01:28:39;;;;;;;3.15;1.50;;;22.10;58.60;;;;;;5037936;28;20124;-67
2022/11/10 01:31:08;;;;;;;2.75;1.30;;;22.10;58.60;;;;;;5042563;28;20127;-66
2022/11/10 01:33:35;;;;;;;2.10;1.50;;;22.10;58.60;;;;;;5030201;28;20042;-65
2022/11/10 01:36:01;;;;;;;2.42;1.42;;;22.10;58.60;;;;;;5028196;28;20021;-67
2022/11/10 01:38:28;;;;;;;2.58;1.60;;;22.10;58.60;;;;;;5040037;28;20383;-66
2022/11/10 01:40:54;;;;;;;2.78;1.70;;;22.10;58.60;;;;;;5041790;28;20051;-67
2022/11/10 01:43:20;;;;;;;2.80;1.45;;;22.10;58.60;;;;;;5035468;28;20116;-67
2022/11/10 01:45:51;;;;;;;2.47;1.38;;;22.10;58.60;;;;;;5035436;28;20458;-65
2022/11/10 01:48:44;;;;;;;2.38;1.42;;;22.10;58.70;;;;;;5029615;28;20060;-67
2022/11/10 01:51:18;;;;;;;2.50;1.50;;;22.00;58.60;;;;;;5031758;28;20033;-67
2022/11/10 01:53:48;;;;;;;2.55;1.40;;;22.10;58.70;;;;;;5033413;28;20480;-67
2022/11/10 01:56:14;;;;;;;;;;;22.10;58.70;;;;;;5036223;28;20025;-66
2022/11/10 01:58:48;;;;;;;2.72;1.40;;;22.00;58.70;;;;;;5035633;28;19916;-67
2022/11/10 02:01:14;;;;;;;2.58;1.20;;;22.00;58.70;;;;;;5034090;28;20985;-67
2022/11/10 02:03:48;;;;;;;2.40;1.40;;;22.00;58.70;;;;;;5033804;28;20072;-67
2022/11/10 02:06:16;;;;;;;2.30;1.35;;;22.00;58.70;;;;;;5037355;28;20479;-67
2022/11/10 02:08:43;;;;;;;2.22;1.42;;;22.00;58.70;;;;;;5046609;28;20048;-68
2022/11/10 02:11:09;;;;;;;2.03;1.30;;;22.00;58.70;;;;;;5030619;28;20047;-66
2022/11/10 02:13:35;;;;;;;2.72;1.50;;;22.00;58.70;;;;;;5028836;28;20038;-66
2022/11/10 02:16:01;;;;;;;2.30;1.40;;;22.00;58.70;;;;;;5033218;28;20025;-66
2022/11/10 02:18:27;;;;;;;3.17;1.65;;;22.00;58.70;;;;;;5041333;28;20029;-66
2022/11/10 02:20:52;;;;;;;2.33;1.40;;;22.00;58.80;;;;;;5033652;28;20053;-66
2022/11/10 02:23:30;;;;;;;2.38;1.30;;;22.00;58.80;;;;;;5023658;28;20029;-66
2022/11/10 02:25:57;;;;;;;2.70;1.50;;;22.00;58.80;;;;;;5026997;28;20024;-66
2022/11/10 02:28:23;;;;;;;2.10;1.30;;;22.00;58.80;;;;;;5025683;28;20025;-66
2022/11/10 02:30:50;;;;;;;1.90;1.30;;;22.00;58.80;;;;;;5017435;28;20038;-66
2022/11/10 02:33:19;;;;;;;2.10;1.30;;;22.00;59.30;;;;;;5036353;28;20033;-66
2022/11/10 02:35:47;;;;;;;2.20;1.40;;;22.00;58.80;;;;;;5039114;28;20498;-66
2022/11/10 02:38:13;;;;;;;1.85;1.25;;;21.90;58.80;;;;;;5022676;28;20036;-66
2022/11/10 02:40:39;;;;;;;2.80;1.40;;;21.90;58.80;;;;;;5036478;28;20041;-67
2022/11/10 02:43:08;;;;;;;2.42;1.50;;;21.90;58.80;;;;;;5036207;28;20087;-66
2022/11/10 02:45:34;;;;;;;2.60;1.42;;;21.90;58.80;;;;;;5041666;28;20056;-67
2022/11/10 02:47:59;;;;;;;2.83;1.50;;;21.90;58.80;;;;;;5033274;28;20425;-66
2022/11/10 02:50:25;;;;;;;2.17;1.38;;;21.90;58.80;;;;;;5032914;28;20093;-67
2022/11/10 02:52:51;;;;;;;2.00;1.30;;;21.90;58.80;;;;;;5031413;28;20112;-66
2022/11/10 02:55:16;;;;;;;2.58;1.40;;;21.90;58.90;;;;;;5039740;28;20108;-66
2022/11/10 02:57:42;;;;;;;1.88;1.40;;;21.90;58.90;;;;;;5034957;28;20025;-67
2022/11/10 03:00:08;;;;;;;2.65;1.40;;;21.90;58.90;;;;;;5035791;28;20466;-67
2022/11/10 03:02:33;;;;;;;2.00;1.40;;;21.90;58.90;;;;;;5030015;28;20034;-67
2022/11/10 03:04:59;;;;;;;2.25;1.50;;;21.90;58.90;;;;;;5009938;28;20071;-66
2022/11/10 03:07:25;;;;;;;2.45;1.52;;;21.90;58.90;;;;;;5032719;28;20037;-67
2022/11/10 03:09:50;;;;;;;2.03;1.30;;;21.90;58.90;;;;;;5040709;28;20029;-66
2022/11/10 03:12:17;;;;;;;1.98;1.20;;;21.90;58.90;;;;;;5039099;28;20040;-67
2022/11/10 03:14:42;;;;;;;2.22;1.40;;;21.90;59.00;;;;;;5039424;28;20021;-67
2022/11/10 03:17:08;;;;;;;2.20;1.30;;;21.90;59.00;;;;;;5024781;28;20080;-67
2022/11/10 03:19:34;;;;;;;1.73;1.20;;;21.90;59.00;;;;;;5037526;28;20464;-67
2022/11/10 03:21:59;;;;;;;2.30;1.50;;;21.90;59.00;;;;;;5034116;28;20527;-66
2022/11/10 03:24:25;;;;;;;2.63;1.30;;;21.80;58.90;;;;;;5040107;28;20051;-67
2022/11/10 03:26:51;;;;;;;1.63;1.20;;;21.80;58.90;;;;;;5040775;28;20022;-67
2022/11/10 03:29:16;;;;;;;1.83;1.20;;;21.80;59.00;;;;;;5040750;28;20104;-66
2022/11/10 03:31:42;;;;;;;1.83;1.25;;;21.80;59.00;;;;;;5040754;28;20039;-66
2022/11/10 03:34:07;;;;;;;2.25;1.20;;;21.80;59.00;;;;;;5035736;28;20480;-67
2022/11/10 03:36:33;;;;;;;1.90;1.30;;;21.80;59.00;;;;;;5034504;28;20100;-66
2022/11/10 03:38:59;;;;;;;2.20;1.40;;;21.80;59.00;;;;;;5034537;28;20461;-66
2022/11/10 03:41:24;;;;;;;1.73;1.30;;;21.80;59.00;;;;;;5034505;28;20082;-68
2022/11/10 03:43:50;;;;;;;1.90;1.20;;;21.80;59.00;;;;;;5038232;28;20408;-68
2022/11/10 03:46:17;;;;;;;2.85;1.33;;;21.80;59.10;;;;;;5037697;28;20057;-68
2022/11/10 03:48:42;;;;;;;1.75;1.20;;;21.80;59.00;;;;;;5038095;28;20028;-67
2022/11/10 03:51:08;;;;;;;2.15;1.30;;;21.80;59.10;;;;;;5043384;28;20472;-67
2022/11/10 03:53:33;;;;;;;2.05;1.27;;;21.70;59.00;;;;;;5042556;28;20074;-66
2022/11/10 03:56:00;;;;;;;1.83;1.20;;;21.70;59.00;;;;;;5037410;28;20033;-66
2022/11/10 03:58:26;;;;;;;2.55;1.27;;;21.70;59.00;;;;;;5035289;28;20101;-66
2022/11/10 04:00:54;;;;;;;1.90;1.25;;;21.70;59.00;;;;;;5040196;28;20160;-66
2022/11/10 04:03:21;;;;;;;2.03;1.10;;;21.70;59.00;;;;;;5038428;28;20029;-66
2022/11/10 04:15:40;;;;;;;2.00;1.15;;;21.70;59.00;;;;;;5026928;28;20113;-68
2022/11/10 04:16:44;;;;;;;1.50;1.05;;;21.70;59.00;;;;;;5039596;28;20083;-67
2022/11/10 04:19:10;;;;;;;1.80;1.25;;;21.70;59.00;;;;;;5043845;28;20025;-67
2022/11/10 04:21:36;;;;;;;4.00;1.13;;;21.70;59.00;;;;;;5039234;28;20112;-68
2022/11/10 04:24:02;;;;;;;2.45;1.40;;;21.70;59.00;;;;;;5033209;28;20038;-67
2022/11/10 04:26:27;;;;;;;1.90;1.20;;;21.70;59.00;;;;;;5036477;28;20495;-68
2022/11/10 04:28:58;;;;;;;1.60;1.13;;;21.70;59.00;;;;;;5044757;28;20064;-67
2022/11/10 04:31:26;;;;;;;1.80;1.10;;;21.70;59.10;;;;;;5021985;28;20053;-67
2022/11/10 04:33:52;;;;;;;2.08;1.30;;;21.70;59.00;;;;;;5033972;28;20126;-68
2022/11/10 04:36:20;;;;;;;1.58;1.10;;;21.70;59.00;;;;;;5036138;28;20062;-68
2022/11/10 04:38:46;;;;;;;2.13;1.42;;;21.70;59.00;;;;;;5039110;28;20037;-68
2022/11/10 04:41:13;;;;;;;1.75;1.13;;;21.70;59.10;;;;;;5039261;28;20556;-68
2022/11/10 04:43:39;;;;;;;2.72;1.30;;;21.70;59.00;;;;;;5035340;28;20030;-67
2022/11/10 04:46:06;;;;;;;1.67;1.17;;;21.70;59.00;;;;;;5028458;28;20116;-68
2022/11/10 04:48:33;;;;;;;1.60;1.23;;;21.70;59.00;;;;;;5022935;28;20061;-67
2022/11/10 04:51:06;;;;;;;2.03;1.30;;;21.70;59.10;;;;;;5030096;28;20557;-67
2022/11/10 04:53:32;;;;;;;1.90;1.20;;;21.60;59.00;;;;;;5036967;28;20473;-68
2022/11/10 04:55:57;;;;;;;1.60;1.10;;;21.60;59.00;;;;;;5033448;28;20025;-68
2022/11/10 04:58:23;;;;;;;1.98;1.10;;;21.70;59.10;;;;;;5030916;28;20460;-67
2022/11/10 05:00:48;;;;;;;1.17;1.00;;;21.70;59.10;;;;;;5030946;28;20078;-67
2022/11/10 05:03:14;;;;;;;2.05;1.30;;;21.70;59.10;;;;;;5024635;28;20021;-68
2022/11/10 05:05:40;;;;;;;1.42;1.10;;;21.70;59.10;;;;;;5038990;28;20554;-66
2022/11/10 05:08:07;;;;;;;2.03;1.30;;;21.70;59.10;;;;;;5038279;28;20036;-67
2022/11/10 05:10:35;;;;;;;1.90;1.20;;;21.60;59.10;;;;;;5037358;28;20177;-67
2022/11/10 05:13:03;;;;;;;1.70;1.13;;;21.60;59.10;;;;;;5037327;28;20033;-67
2022/11/10 05:15:29;;;;;;;2.03;1.10;;;21.60;59.10;;;;;;5037202;28;20031;-67
2022/11/10 05:17:55;;;;;;;2.00;1.20;;;21.60;59.10;;;;;;5036810;28;20044;-67
2022/11/10 05:20:23;;;;;;;1.88;1.30;;;21.60;59.00;;;;;;5031229;28;20020;-66
2022/11/10 05:25:36;;;;;;;1.45;1.05;;;21.60;59.00;;;;;;5029491;28;20079;-66
2022/11/10 05:28:03;;;;;;;1.90;1.10;;;21.60;59.00;;;;;;5031548;28;20029;-68
2022/11/10 05:30:29;;;;;;;1.80;1.20;;;21.60;59.10;;;;;;5038282;28;20090;-66
2022/11/10 05:32:55;;;;;;;2.13;1.08;;;21.60;59.00;;;;;;5034810;28;20036;-66
2022/11/10 05:35:20;;;;;;;1.27;0.90;;;21.60;59.10;;;;;;5034718;28;20021;-66
2022/11/10 05:37:46;;;;;;;1.67;1.00;;;21.60;59.10;;;;;;5033847;28;20029;-67
2022/11/10 05:40:12;;;;;;;2.05;1.20;;;21.70;59.10;;;;;;5026988;28;20033;-66
2022/11/10 05:42:51;;;;;;;1.67;1.10;;;21.60;59.10;;;;;;5035423;28;20029;-67
2022/11/10 05:45:17;;;;;;;;;;;21.60;59.10;;;;;;5037011;28;20099;-67
2022/11/10 05:47:43;;;;;;;1.63;1.10;;;21.60;59.10;;;;;;5036154;28;19909;-65
2022/11/10 05:50:09;;;;;;;1.70;1.13;;;21.60;59.10;;;;;;5029799;28;20175;-66
2022/11/10 05:52:38;;;;;;;1.80;1.20;;;21.60;59.10;;;;;;5027733;28;20021;-65
2022/11/10 05:55:04;;;;;;;1.75;1.13;;;21.60;59.10;;;;;;5032841;28;20025;-67
2022/11/10 05:57:29;;;;;;;1.80;1.10;;;21.60;59.10;;;;;;5014545;28;20036;-66
2022/11/10 05:59:55;;;;;;;1.50;1.00;;;21.60;59.10;;;;;;5034296;28;20136;-66
2022/11/10 06:02:20;;;;;;;1.50;1.00;;;21.60;59.10;;;;;;5036786;28;20030;-66
2022/11/10 06:04:46;;;;;;;2.13;1.35;;;21.60;59.20;;;;;;5040888;28;20069;-67
2022/11/10 06:07:12;;;;;;;1.75;0.95;;;21.60;59.20;;;;;;5033911;28;20032;-68
2022/11/10 06:09:37;;;;;;;1.63;1.00;;;21.60;59.20;;;;;;5034701;28;20056;-67
2022/11/10 06:12:03;;;;;;;1.75;1.10;;;21.60;59.20;;;;;;5037971;28;20033;-68
2022/11/10 06:14:29;;;;;;;1.65;1.00;;;21.60;59.10;;;;;;5018109;28;20036;-67
2022/11/10 06:16:55;;;;;;;1.17;1.00;;;21.60;59.10;;;;;;5037050;28;20029;-67
2022/11/10 06:19:20;;;;;;;1.95;1.10;;;21.60;59.10;;;;;;5029415;28;20472;-68
2022/11/10 06:21:46;;;;;;;1.73;1.20;;;21.60;59.10;;;;;;5036951;28;20032;-67
2022/11/10 06:24:11;;;;;;;1.90;1.00;;;21.60;59.10;;;;;;5041204;28;20034;-67
2022/11/10 06:26:37;;;;;;;1.67;1.08;;;21.60;59.00;;;;;;5035960;28;20069;-67
2022/11/10 06:29:03;;;;;;;2.10;1.20;;;21.60;59.10;;;;;;5026534;28;20467;-68
2022/11/10 06:31:28;;;;;;;1.30;0.80;;;21.60;59.00;;;;;;5012863;28;20025;-67
2022/11/10 06:33:54;;;;;;;1.80;1.00;;;21.60;59.00;;;;;;5007365;28;20318;-66
2022/11/10 06:36:21;;;;;;;1.52;0.98;;;21.60;59.10;;;;;;5019378;28;20068;-67
2022/11/10 06:38:46;;;;;;;1.45;0.95;;;21.60;59.00;;;;;;5027503;28;20045;-66
2022/11/10 06:41:12;;;;;;;1.42;0.90;;;21.70;59.20;;;;;;5028524;28;20021;-67
2022/11/10 06:43:38;;;;;;;2.67;1.10;;;21.60;59.40;;;;;;5023430;28;20036;-67
2022/11/10 06:46:03;;;;;;;4.90;1.38;;;21.60;59.40;;;;;;5028726;28;20087;-66
2022/11/10 06:48:29;;;;;;;1.73;1.00;;;21.60;59.40;;;;;;5039056;28;20037;-67
2022/11/10 06:50:58;;;;;;;3.25;1.30;;;21.60;59.40;;;;;;5040950;28;20795;-67
2022/11/10 06:53:24;;;;;;;1.70;1.00;;;21.60;59.30;;;;;;5038283;28;20033;-66
2022/11/10 06:55:49;;;;;;;1.95;1.20;;;21.60;59.30;;;;;;5031766;28;20113;-66
2022/11/10 06:58:15;;;;;;;1.90;1.00;;;21.60;59.30;;;;;;5034556;28;20029;-67
2022/11/10 07:00:41;;;;;;;3.40;1.20;;;21.60;59.30;;;;;;5041715;28;20026;-66
2022/11/10 07:03:10;;;;;;;2.35;1.15;;;21.50;59.20;;;;;;5040163;28;20033;-66
2022/11/10 07:05:36;;;;;;;2.70;1.30;;;21.50;59.70;;;;;;5029532;28;20087;-66
2022/11/10 07:08:14;;;;;;;2.00;1.23;;;21.60;59.20;;;;;;5029863;28;20421;-67
2022/11/10 07:10:44;;;;;;;2.65;1.20;;;21.50;59.10;;;;;;5026150;28;20475;-67
2022/11/10 07:13:10;;;;;;;1.88;1.00;;;21.60;59.20;;;;;;5034742;28;20053;-66
2022/11/10 07:15:36;;;;;;;2.42;1.17;;;21.60;59.10;;;;;;5032432;28;20439;-66
2022/11/10 07:18:02;;;;;;;2.22;1.20;;;21.60;59.10;;;;;;5026151;28;20052;-66
2022/11/10 07:20:31;;;;;;;1.98;1.15;;;21.60;59.10;;;;;;5027554;28;20116;-67
2022/11/10 07:23:02;;;;;;;3.45;1.25;;;21.60;59.10;;;;;;5023901;28;20443;-67
2022/11/10 07:25:29;;;;;;;2.72;1.23;;;21.50;59.10;;;;;;5032429;28;20067;-66
2022/11/10 07:28:00;;;;;;;3.08;1.42;;;21.50;59.10;;;;;;5033891;28;20410;-66
2022/11/10 07:30:26;;;;;;;4.22;1.20;;;21.50;59.10;;;;;;5028374;28;20036;-67
2022/11/10 07:33:03;;;;;;;2.38;1.30;;;21.50;59.10;;;;;;5028771;28;20072;-66
2022/11/10 07:35:29;;;;;;;2.33;1.10;;;21.60;59.10;;;;;;5036622;28;20018;-65
2022/11/10 07:37:56;;;;;;;3.13;1.30;;;21.50;59.00;;;;;;5040424;28;20025;-65
2022/11/10 07:40:22;;;;;;;2.92;1.30;;;21.50;59.00;;;;;;5038845;28;20033;-66
2022/11/10 07:42:47;;;;;;;3.22;1.40;;;21.50;59.00;;;;;;5034002;28;20480;-65
2022/11/10 07:45:13;;;;;;;2.55;1.20;;;21.60;59.00;;;;;;5015650;28;20030;-65
2022/11/10 07:47:38;;;;;;;1.67;1.00;;;21.50;59.00;;;;;;5035278;28;20044;-67
2022/11/10 07:50:05;;;;;;;2.42;1.20;;;21.50;58.90;;;;;;5035836;28;20045;-65
2022/11/10 07:52:30;;;;;;;2.63;1.27;;;21.50;58.90;;;;;;5036649;28;20052;-66
2022/11/10 07:54:56;;;;;;;2.45;1.00;;;21.50;58.90;;;;;;5035660;28;20025;-65
2022/11/10 07:57:21;;;;;;;2.13;1.10;;;21.50;58.90;;;;;;5033021;28;20022;-65
2022/11/10 07:59:47;;;;;;;2.28;1.40;;;21.50;58.90;;;;;;5035977;28;20156;-65
2022/11/10 08:02:13;;;;;;;2.20;1.20;;;21.50;58.90;;;;;;5037351;28;20053;-65
2022/11/10 08:04:38;;;;;;;2.60;1.00;;;21.50;58.90;;;;;;5037704;28;20433;-65
2022/11/10 08:07:04;;;;;;;2.38;1.25;;;21.50;58.90;;;;;;5037468;28;20088;-66
2022/11/10 08:09:29;;;;;;;2.22;1.30;;;21.50;58.90;;;;;;5036955;28;20492;-66
2022/11/10 08:11:55;;;;;;;1.90;1.00;;;21.50;58.90;;;;;;5037313;28;20436;-65
2022/11/10 08:14:21;;;;;;;2.05;1.08;;;21.50;58.90;;;;;;5034979;28;20060;-65
2022/11/10 08:16:47;;;;;;;2.95;1.23;;;21.50;58.80;;;;;;5042771;28;20021;-66
2022/11/10 08:19:12;;;;;;;2.17;1.10;;;21.50;58.80;;;;;;5037807;28;20030;-66
2022/11/10 08:21:38;;;;;;;2.92;1.25;;;21.50;58.80;;;;;;5028446;28;20025;-66
2022/11/10 08:24:04;;;;;;;2.70;1.00;;;21.50;58.90;;;;;;5044432;28;20029;-65
2022/11/10 08:26:29;;;;;;;2.35;0.90;;;21.50;58.90;;;;;;5045446;28;20036;-66
2022/11/10 08:28:55;;;;;;;1.75;1.00;;;21.50;58.80;;;;;;5028529;28;20030;-66
2022/11/10 08:31:21;;;;;;;3.47;1.08;;;21.50;58.90;;;;;;5036940;28;20034;-66
2022/11/10 08:33:47;;;;;;;2.38;1.10;;;21.50;58.90;;;;;;5038215;28;20050;-66
2022/11/10 08:36:13;;;;;;;2.03;1.10;;;21.50;58.90;;;;;;5041837;28;20029;-66
2022/11/10 08:38:39;;;;;;;1.50;0.95;;;21.50;59.40;;;;;;5037954;28;20392;-65
2022/11/10 08:41:04;;;;;;;1.55;0.90;;;21.50;58.80;;;;;;5031274;28;20075;-66
2022/11/10 08:43:30;;;;;;;1.80;1.00;;;21.50;58.90;;;;;;5040564;28;20424;-65
2022/11/10 08:45:55;;;;;;;2.03;1.10;;;21.50;58.90;;;;;;5040961;28;20029;-65
2022/11/10 08:48:22;;;;;;;1.67;1.15;;;21.50;58.90;;;;;;5039936;28;20074;-66
2022/11/10 08:50:48;;;;;;;3.28;1.17;;;21.50;58.90;;;;;;5032463;28;20521;-66
2022/11/10 08:53:22;;;;;;;1.77;1.10;;;21.50;58.90;;;;;;5032091;28;20353;-65
2022/11/10 08:55:48;;;;;;;2.80;1.20;;;21.50;58.90;;;;;;5038380;28;20017;-65
2022/11/10 08:58:20;;;;;;;2.33;1.25;;;21.50;58.90;;;;;;5032124;28;20046;-67
2022/11/10 09:00:46;;;;;;;2.63;1.20;;;21.50;58.90;;;;;;5029601;28;20022;-67
2022/11/10 09:03:24;;;;;;;2.85;1.42;;;21.50;58.90;;;;;;5022191;28;20022;-65
2022/11/10 09:05:51;;;;;;;2.90;1.10;;;21.40;58.90;;;;;;5021904;28;20033;-65
2022/11/10 09:08:17;;;;;;;2.00;1.10;;;21.40;58.80;;;;;;5030294;28;20343;-66
2022/11/10 09:10:46;;;;;;;1.60;1.00;;;21.50;58.90;;;;;;5033527;28;20148;-66
2022/11/10 09:13:13;;;;;;;2.38;1.10;;;21.50;58.90;;;;;;5038162;28;20358;-66
2022/11/10 09:15:40;;;;;;;1.83;1.10;;;21.40;58.90;;;;;;5035260;28;20392;-65
2022/11/10 09:18:07;;;;;;;2.42;1.33;;;21.40;58.90;;;;;;5031882;28;20579;-65
2022/11/10 09:20:34;;;;;;;1.85;1.10;;;21.40;58.90;;;;;;5037150;28;20356;-66
2022/11/10 09:23:09;;;;;;;2.00;1.10;;;21.40;58.90;;;;;;5044478;28;20084;-65
2022/11/10 09:25:35;;;;;;;1.83;1.10;;;21.40;58.90;;;;;;5040640;28;20619;-66
2022/11/10 09:28:01;;;;;;;2.33;1.20;;;21.40;58.90;;;;;;5033543;28;20028;-67
2022/11/10 09:30:27;;;;;;;2.38;1.13;;;21.40;59.00;;;;;;5032499;28;20034;-65
2022/11/10 09:32:57;;;;;;;2.63;1.20;;;21.40;59.00;;;;;;5034297;28;20038;-66
2022/11/10 09:35:23;;;;;;;2.30;1.20;;;21.40;59.00;;;;;;5036756;28;20151;-65
2022/11/10 09:37:49;;;;;;;2.65;1.05;;;21.40;59.00;;;;;;5031217;28;20030;-65
2022/11/10 09:40:22;;;;;;;2.50;1.20;;;21.40;59.00;;;;;;5026442;28;20034;-65
2022/11/10 09:42:47;;;;;;;1.75;1.05;;;21.40;59.00;;;;;;5028279;28;20471;-66
2022/11/10 09:45:19;;;;;;;3.30;1.50;;;21.40;59.00;;;;;;5033662;28;20031;-65
2022/11/10 09:47:48;;;;;;;2.80;1.30;;;21.40;59.10;;;;;;5036444;28;20500;-65
2022/11/10 09:50:20;;;;;;;2.63;1.42;;;21.40;59.10;;;;;;5028910;28;20124;-66
2022/11/10 09:52:48;;;;;;;2.75;1.35;;;21.40;59.20;;;;;;5028762;28;20040;-65
2022/11/10 09:55:36;;;;;;;2.58;1.23;;;21.40;59.20;;;;;;5029274;28;20021;-64
2022/11/10 09:58:02;;;;;;;2.65;1.40;;;21.40;59.20;;;;;;5031888;28;20384;-65
2022/11/10 10:00:30;;;;;;;2.40;1.30;;;21.40;59.20;;;;;;5033883;28;20026;-65
2022/11/10 10:03:00;;;;;;;1.92;1.13;;;21.30;59.10;;;;;;5037361;28;20024;-64
2022/11/10 10:05:29;;;;;;;2.60;1.60;;;21.30;59.20;;;;;;5038364;28;20452;-64
2022/11/10 10:08:10;;;;;;;1.95;1.20;;;21.40;59.20;;;;;;5037440;28;20025;-65
2022/11/10 10:11:09;;;;;;;2.38;1.17;;;21.30;59.20;;;;;;5041028;28;20677;-65
2022/11/10 10:13:59;;;;;;;2.78;1.27;;;21.40;59.30;;;;;;4999073;28;20037;-65
2022/11/10 10:16:37;;;;;;;2.03;1.13;;;21.40;59.20;;;;;;5031746;28;20021;-65
2022/11/10 10:19:21;;;;;;;1.58;1.10;;;21.40;59.30;;;;;;5034605;28;20030;-65
2022/11/10 10:22:31;;;;;;;3.55;1.30;;;21.30;59.30;;;;;;5039181;28;20028;-66
2022/11/10 10:25:01;;;;;;;2.30;1.20;;;21.30;59.30;;;;;;5028428;28;20037;-66
2022/11/10 10:27:27;;;;;;;;;;;21.30;59.30;;;;;;5033698;28;20476;-64
2022/11/10 10:29:53;;;;;;;2.22;1.10;;;21.30;59.30;;;;;;5033908;28;19910;-64
2022/11/10 10:32:21;;;;;;;2.70;1.33;;;21.30;59.30;;;;;;5032588;28;20036;-64
2022/11/10 10:34:47;;;;;;;2.50;1.25;;;21.30;59.30;;;;;;5032537;28;20507;-66
2022/11/10 10:37:25;;;;;;;2.65;1.23;;;21.30;59.30;;;;;;5029865;28;20053;-64
2022/11/10 10:39:54;;;;;;;2.53;1.20;;;21.30;59.30;;;;;;5032450;28;20506;-65
2022/11/10 10:42:30;;;;;;;2.28;1.30;;;21.30;59.30;;;;;;5035846;28;20036;-65
2022/11/10 10:45:17;;;;;;;2.55;1.42;;;21.40;59.40;;;;;;5024764;28;20038;-64
2022/11/10 10:47:43;;;;;;;2.22;1.42;;;21.30;59.40;;;;;;5019410;28;20084;-65
2022/11/10 10:50:33;;;;;;;2.42;1.40;;;21.30;59.30;;;;;;5019546;28;20033;-64
2022/11/10 10:53:20;;;;;;;2.10;1.20;;;21.40;59.40;;;;;;5034879;28;20518;-66
2022/11/10 10:56:17;;;;;;;2.33;1.27;;;21.30;59.40;;;;;;5042500;28;20021;-64
2022/11/10 10:58:55;;;;;;;2.03;1.20;;;21.30;59.40;;;;;;5037039;28;20880;-65
2022/11/10 11:01:25;;;;;;;2.15;1.30;;;21.30;59.30;;;;;;5027582;28;20120;-65
2022/11/10 11:03:52;;;;;;;2.63;1.30;;;21.40;59.40;;;;;;5033655;28;20033;-65
2022/11/10 11:06:25;;;;;;;2.00;1.20;;;21.40;59.40;;;;;;5037920;28;20034;-65
2022/11/10 11:09:16;;;;;;;2.20;1.20;;;21.30;59.30;;;;;;5040175;28;20057;-64
2022/11/10 11:11:44;;;;;;;2.13;1.30;;;21.40;59.40;;;;;;5026366;28;20026;-65
2022/11/10 11:14:21;;;;;;;2.35;1.25;;;21.40;59.30;;;;;;5030642;28;20074;-64
2022/11/10 11:16:50;;;;;;;1.95;1.02;;;21.30;59.30;;;;;;5039232;28;20123;-66
2022/11/10 11:19:17;;;;;;;2.33;1.25;;;21.40;59.30;;;;;;5019507;28;20026;-64
2022/11/10 11:21:53;;;;;;;2.70;1.10;;;21.40;59.30;;;;;;5025907;28;20034;-64
2022/11/10 11:24:50;;;;;;;1.90;1.17;;;21.40;59.30;;;;;;5023109;28;20140;-65
2022/11/10 11:27:36;;;;;;;2.20;1.15;;;21.40;59.30;;;;;;5025988;28;20022;-64
2022/11/10 11:30:02;;;;;;;1.73;1.00;;;21.40;59.30;;;;;;5032814;28;20067;-67
2022/11/10 11:32:33;;;;;;;1.88;1.10;;;21.40;59.30;;;;;;5033913;28;20050;-64
2022/11/10 11:35:06;;;;;;;2.67;1.23;;;21.40;59.20;;;;;;5028516;28;20030;-64
2022/11/10 11:37:55;;;;;;;1.60;1.10;;;21.40;59.30;;;;;;5025675;28;20020;-64
2022/11/10 11:40:26;;;;;;;2.17;1.30;;;21.40;59.30;;;;;;5019469;28;20411;-63
2022/11/10 11:43:01;;;;;;;1.65;1.10;;;21.40;59.30;;;;;;5045092;28;20025;-65
2022/11/10 11:45:56;;;;;;;1.95;1.10;;;21.40;59.30;;;;;;5045585;28;20025;-64
2022/11/10 11:48:45;;;;;;;1.85;1.20;;;21.40;59.30;;;;;;5035240;28;20038;-64
2022/11/10 11:51:42;;;;;;;1.20;0.98;;;21.40;59.30;;;;;;5036860;28;20032;-64
2022/11/10 11:54:33;;;;;;;1.90;1.17;;;21.40;59.20;;;;;;5027977;28;20041;-64
2022/11/10 11:57:23;;;;;;;1.70;1.00;;;21.40;59.20;;;;;;5035762;28;20022;-64
2022/11/10 11:59:57;;;;;;;2.33;1.30;;;21.40;59.20;;;;;;5030859;28;20546;-64
2022/11/10 12:02:40;;;;;;;2.22;1.20;;;21.40;59.10;;;;;;5031018;28;20037;-64
2022/11/10 12:05:24;;;;;;;2.13;1.20;;;21.40;59.10;;;;;;5035944;28;20024;-64
2022/11/10 12:08:17;;;;;;;1.65;1.08;;;21.40;59.00;;;;;;5038531;28;20037;-65
2022/11/10 12:10:51;;;;;;;2.08;1.10;;;21.40;59.00;;;;;;5029378;28;20879;-64
2022/11/10 12:13:50;;;;;;;2.08;1.10;;;21.40;59.00;;;;;;5029259;28;20469;-64
2022/11/10 12:16:19;;;;;;;;;;;21.40;59.00;;;;;;5030465;28;20029;-64
2022/11/10 12:18:50;;;;;;;2.03;1.10;;;21.40;58.90;;;;;;5033162;28;19909;-64
2022/11/10 12:21:35;;;;;;;1.98;1.10;;;21.40;58.80;;;;;;5034880;28;20017;-65
2022/11/10 12:24:17;;;;;;;2.65;1.20;;;21.40;58.90;;;;;;5029841;28;20498;-64
2022/11/10 12:26:54;;;;;;;2.05;1.10;;;21.40;58.90;;;;;;5031630;28;20032;-64
2022/11/10 12:29:52;;;;;;;1.67;1.10;;;21.50;58.80;;;;;;5031582;28;20041;-65
2022/11/10 12:32:24;;;;;;;1.70;0.90;;;21.40;58.80;;;;;;5037058;28;20057;-64
2022/11/10 12:34:56;;;;;;;2.00;1.08;;;21.40;58.80;;;;;;5033901;28;20048;-64
2022/11/10 12:37:37;;;;;;;2.10;1.17;;;21.40;58.80;;;;;;5036828;28;20025;-65
2022/11/10 12:40:19;;;;;;;2.05;1.33;;;21.40;59.30;;;;;;5041961;28;20032;-65
2022/11/10 12:42:51;;;;;;;2.28;1.08;;;21.50;58.70;;;;;;5044206;28;20017;-64
2022/11/10 12:45:22;;;;;;;2.17;1.17;;;21.40;58.70;;;;;;5030492;28;20032;-64
2022/11/10 12:47:48;;;;;;;2.05;1.10;;;21.40;58.70;;;;;;5025629;28;20474;-65
2022/11/10 12:50:44;;;;;;;2.40;1.20;;;21.50;58.70;;;;;;5032090;28;20033;-64
2022/11/10 12:53:12;;;;;;;1.80;1.02;;;21.40;58.60;;;;;;5034981;28;20053;-64
2022/11/10 12:55:48;;;;;;;2.20;1.08;;;21.50;58.60;;;;;;5018839;28;20504;-64
2022/11/10 12:58:14;;;;;;;2.40;1.33;;;21.50;58.60;;;;;;5031724;28;20036;-64
2022/11/10 13:00:54;;;;;;;2.40;1.10;;;21.50;58.70;;;;;;5035518;28;20380;-64
2022/11/10 13:03:35;;;;;;;1.77;1.13;;;21.50;59.30;;;;;;5035802;28;20469;-64
2022/11/10 13:06:03;;;;;;;2.15;1.10;;;21.50;58.60;;;;;;5037847;28;20060;-64
2022/11/10 13:08:42;;;;;;;1.70;1.07;;;21.50;58.60;;;;;;5025965;28;20034;-64
2022/11/10 13:11:11;;;;;;;1.40;0.93;;;21.50;58.60;;;;;;5026454;28;20076;-65
2022/11/10 13:13:52;;;;;;;2.25;1.10;;;21.50;58.60;;;;;;5027287;28;20481;-64